Terminal Aerodrome Forecast
Issued by NWS Albany, NY

Home | Current Version | Previous Version | Text Only | Print | Product List | Glossary On
Versions: 1 2 3 4 5 6 7 8 9 10 11 12 13 14 15 16 17 18 19 20 21 22 23 24
000
FTUS41 KALY 212300
TAFALB
TAF
KALB 212320Z 2200/2224 VRB03KT P6SM OVC030
      TEMPO 2202/2206 OVC020
     FM220600 00000KT 6SM BR SCT008 OVC020
     FM221600 03004KT 6SM BR VCSH OVC025=

USA.gov is the U.S. government's official web portal to all federal, state and local government web resources and services.